Time;durP1;ratioP1;P1;durP2;ratioP2;P2;SDS_P1;SDS_P2;PMS_P1;PMS_P2;Temp;Humidity;BMP_temperature;BMP_pressure;BME280_temperature;BME280_humidity;BME280_pressure;Samples;Min_cycle;Max_cycle;Signal;HPM_P1;HPM_P2
2022/08/10 00:00:19;;;;;;;2.67;2.58;;;;;;;17.76;100.00;102548.31;5224951;28;20021;-58
2022/08/10 00:02:20;;;;;;;2.60;2.35;;;;;;;17.76;100.00;102542.84;5214493;28;20041;-57
2022/08/10 00:04:50;;;;;;;2.58;2.40;;;;;;;17.73;100.00;102546.09;5213652;28;20017;-58
2022/08/10 00:07:21;;;;;;;1.90;1.77;;;;;;;17.69;100.00;102543.06;5222521;28;20039;-58
2022/08/10 00:09:51;;;;;;;3.40;3.13;;;;;;;17.65;100.00;102543.84;5206160;28;20025;-60
2022/08/10 00:12:22;;;;;;;3.35;3.15;;;;;;;17.50;100.00;102531.72;5214255;28;20036;-60
2022/08/10 00:14:52;;;;;;;3.78;2.90;;;;;;;17.44;100.00;102527.28;5225753;28;20051;-60
2022/08/10 00:17:23;;;;;;;2.47;2.33;;;;;;;17.43;100.00;102527.56;5226456;28;20473;-59
2022/08/10 00:19:53;;;;;;;3.15;2.95;;;;;;;17.49;100.00;102538.25;5226128;28;20035;-59
2022/08/10 00:22:23;;;;;;;2.38;2.28;;;;;;;17.48;100.00;102538.53;5226387;28;20105;-59
2022/08/10 00:24:56;;;;;;;2.80;2.70;;;;;;;17.47;100.00;102545.91;5225677;28;20032;-59
2022/08/10 00:27:28;;;;;;;4.53;3.10;;;;;;;17.42;100.00;102537.66;5206157;28;20036;-62
2022/08/10 00:29:58;;;;;;;2.50;2.40;;;;;;;17.45;100.00;102533.56;5205315;28;20113;-58
2022/08/10 00:32:29;;;;;;;2.13;2.03;;;;;;;17.46;100.00;102533.31;5205792;28;20104;-62
2022/08/10 00:34:59;;;;;;;2.42;2.33;;;;;;;17.42;100.00;102536.84;5204912;28;20100;-60
2022/08/10 00:37:29;;;;;;;3.13;3.03;;;;;;;17.36;100.00;102538.69;5217830;28;20036;-59
2022/08/10 00:40:00;;;;;;;2.72;2.53;;;;;;;17.16;100.00;102509.31;5191383;28;20033;-59
2022/08/10 00:42:30;;;;;;;2.88;2.67;;;;;;;17.28;100.00;102535.63;5225819;28;20480;-59
2022/08/10 00:45:01;;;;;;;3.08;2.47;;;;;;;17.25;100.00;102539.72;5225380;28;20096;-60
2022/08/10 00:47:31;;;;;;;3.80;3.60;;;;;;;17.17;100.00;102534.72;5225545;28;20051;-60
2022/08/10 00:50:04;;;;;;;2.65;2.55;;;;;;;17.13;100.00;102528.13;5225273;28;20029;-59
2022/08/10 00:52:36;;;;;;;5.82;3.42;;;;;;;17.13;100.00;102528.13;5213888;28;20112;-59
2022/08/10 00:55:07;;;;;;;2.55;2.45;;;;;;;17.10;100.00;102524.00;5204622;28;20032;-58
2022/08/10 00:57:38;;;;;;;2.88;2.78;;;;;;;17.06;100.00;102522.03;5204756;28;20599;-58
2022/08/10 01:00:10;;;;;;;2.20;2.10;;;;;;;17.02;100.00;102518.22;5204833;28;20029;-60
2022/08/10 01:02:40;;;;;;;2.53;2.42;;;;;;;16.97;100.00;102512.69;5204831;28;20401;-61
2022/08/10 01:05:13;;;;;;;2.80;2.70;;;;;;;16.98;100.00;102522.53;5204956;28;20033;-61
2022/08/10 01:07:43;;;;;;;3.05;2.85;;;;;;;16.98;100.00;102517.91;5225371;28;20040;-59
2022/08/10 01:10:35;;;;;;;4.35;2.97;;;;;;;16.96;100.00;102516.50;5225386;28;20354;-61
2022/08/10 01:13:12;;;;;;;2.28;2.17;;;;;;;16.95;100.00;102512.97;5225472;28;20029;-60
2022/08/10 01:16:03;;;;;;;3.45;3.25;;;;;;;16.96;100.00;102511.06;5225146;28;20511;-58
2022/08/10 01:18:59;;;;;;;2.88;2.67;;;;;;;16.97;100.00;102515.44;5225030;28;20531;-58
2022/08/10 01:22:16;;;;;;;3.58;3.28;;;;;;;16.96;100.00;102511.06;5225162;28;20453;-59
2022/08/10 01:25:01;;;;;;;2.95;2.75;;;;;;;16.92;100.00;102507.19;5218653;28;20120;-59
2022/08/10 01:28:06;;;;;;;2.92;2.83;;;;;;;16.87;100.00;102502.50;5224706;28;20025;-60
2022/08/10 01:30:39;;;;;;;3.20;2.92;;;;;;;16.79;100.00;102489.31;5225140;28;20056;-59
2022/08/10 01:33:17;;;;;;;3.00;2.90;;;;;;;16.84;100.00;102508.47;5207525;28;20485;-59
2022/08/10 01:35:53;;;;;;;3.45;3.25;;;;;;;16.82;100.00;102513.34;5224689;28;20064;-59
2022/08/10 01:38:29;;;;;;;2.67;2.58;;;;;;;16.79;100.00;102506.50;5224948;28;20377;-59
2022/08/10 01:41:07;;;;;;;2.90;2.80;;;;;;;16.78;100.00;102504.84;5224701;28;20112;-59
2022/08/10 01:44:06;;;;;;;3.55;3.35;;;;;;;16.77;100.00;102511.41;5224570;28;20032;-59
2022/08/10 01:46:41;;;;;;;3.00;2.83;;;;;;;16.71;100.00;102509.72;5223940;28;20043;-61
2022/08/10 01:49:14;;;;;;;2.70;2.28;;;;;;;16.70;100.00;102508.06;5224422;28;20025;-60
2022/08/10 01:51:51;;;;;;;3.40;2.97;;;;;;;16.68;100.00;102512.97;5224014;28;20473;-57
2022/08/10 01:54:24;;;;;;;3.03;2.90;;;;;;;16.63;100.00;102504.69;5223689;28;20377;-58
2022/08/10 01:56:56;;;;;;;2.65;2.55;;;;;;;16.66;100.00;102500.66;5224052;28;20115;-59
2022/08/10 01:59:33;;;;;;;3.10;3.00;;;;;;;16.64;100.00;102495.44;5223837;28;20029;-57
2022/08/10 02:02:06;;;;;;;3.10;3.00;;;;;;;16.64;100.00;102502.81;5223613;28;20037;-62
2022/08/10 02:04:39;;;;;;;3.67;3.47;;;;;;;16.54;100.00;102487.94;5223145;28;20120;-57
2022/08/10 02:07:15;;;;;;;3.95;3.65;;;;;;;16.54;100.00;102498.03;5223653;28;20342;-62
2022/08/10 02:09:50;;;;;;;10.30;4.07;;;;;;;16.54;100.00;102493.41;5223840;28;20055;-59
2022/08/10 02:12:28;;;;;;;4.13;3.83;;;;;;;16.42;100.00;102489.19;5223498;28;20027;-61
2022/08/10 02:15:11;;;;;;;3.47;3.28;;;;;;;16.47;100.00;102498.22;5222146;28;20028;-59
2022/08/10 02:17:48;;;;;;;2.85;2.60;;;;;;;16.50;100.00;102510.53;5189204;28;20068;-56
2022/08/10 02:20:26;;;;;;;3.35;3.13;;;;;;;16.49;100.00;102508.88;5223648;28;20029;-61
2022/08/10 02:22:59;;;;;;;3.58;3.30;;;;;;;16.43;100.00;102496.28;5223162;28;20434;-56
2022/08/10 02:25:31;;;;;;;13.52;3.30;;;;;;;16.41;100.00;102490.25;5223009;28;20040;-56
2022/08/10 02:28:05;;;;;;;3.65;3.35;;;;;;;16.42;100.00;102500.09;5223209;28;20013;-58
2022/08/10 02:30:36;;;;;;;3.33;3.13;;;;;;;16.36;100.00;102495.66;5223320;28;20108;-59
2022/08/10 02:33:08;;;;;;;2.53;2.42;;;;;;;16.36;100.00;102492.94;5205204;28;20025;-59
2022/08/10 02:35:41;;;;;;;3.50;3.30;;;;;;;16.35;100.00;102497.56;5222879;28;20025;-59
2022/08/10 02:38:14;;;;;;;7.15;3.17;;;;;;;16.32;100.00;102500.78;5222986;28;20021;-61
2022/08/10 02:40:48;;;;;;;2.97;2.78;;;;;;;16.30;100.00;102493.94;5223387;28;20551;-59
2022/08/10 02:43:26;;;;;;;3.00;2.90;;;;;;;16.29;100.00;102500.47;5223258;28;20036;-60
2022/08/10 02:46:07;;;;;;;2.92;2.72;;;;;;;16.20;100.00;102491.91;5223431;28;20499;-59
2022/08/10 02:48:53;;;;;;;3.60;3.40;;;;;;;16.20;100.00;102500.91;5205699;28;20051;-58
2022/08/10 02:51:39;;;;;;;2.60;2.50;;;;;;;16.04;100.00;102476.44;5241640;22;20052;-80
2022/08/10 02:54:23;;;;;;;5.60;3.78;;;;;;;16.13;100.00;102491.28;5241483;28;20381;-80
2022/08/10 02:57:19;;;;;;;4.65;2.78;;;;;;;16.15;100.00;102484.50;5256613;28;20028;-79
2022/08/10 02:59:53;;;;;;;2.83;2.72;;;;;;;16.13;100.00;102486.66;5247795;28;20044;-80
2022/08/10 03:02:33;;;;;;;4.53;4.22;;;;;;;15.97;100.00;102462.19;5257041;28;20025;-78
2022/08/10 03:05:08;;;;;;;3.80;3.60;;;;;;;16.04;100.00;102479.19;5255269;28;20043;-80
2022/08/10 03:07:59;;;;;;;2.63;2.50;;;;;;;16.07;100.00;102482.22;5253863;28;20028;-80
2022/08/10 03:10:37;;;;;;;4.15;3.95;;;;;;;16.05;100.00;102486.28;5254618;28;20087;-81
2022/08/10 03:13:09;;;;;;;9.70;4.25;;;;;;;16.03;100.00;102478.34;5255483;28;20032;-81
2022/08/10 03:15:40;;;;;;;5.32;3.80;;;;;;;16.01;100.00;102485.94;5254766;28;20028;-79
2022/08/10 03:18:13;;;;;;;3.45;3.25;;;;;;;15.92;100.00;102479.28;5255295;28;20028;-80
2022/08/10 03:20:44;;;;;;;5.78;3.70;;;;;;;15.95;100.00;102489.69;5255454;28;20035;-81
2022/08/10 03:23:22;;;;;;;5.70;4.05;;;;;;;15.84;100.00;102477.84;5254794;28;20032;-79
2022/08/10 03:25:57;;;;;;;4.18;3.88;;;;;;;15.84;100.00;102483.28;5253957;28;20036;-80
2022/08/10 03:28:30;;;;;;;4.88;4.68;;;;;;;15.84;100.00;102490.63;5256174;28;20401;-81
2022/08/10 03:31:01;;;;;;;5.28;4.97;;;;;;;15.82;100.00;102495.50;5256271;28;20024;-82
2022/08/10 03:33:35;;;;;;;7.32;3.90;;;;;;;15.77;100.00;102490.00;5256459;28;20280;-82
2022/08/10 03:36:07;;;;;;;4.05;3.85;;;;;;;15.66;100.00;102480.84;5256973;28;20123;-82
2022/08/10 03:38:39;;;;;;;4.25;4.05;;;;;;;15.62;100.00;102470.69;5260530;28;20029;-79
2022/08/10 03:41:12;;;;;;;4.88;4.57;;;;;;;15.58;100.00;102464.94;5259198;28;20069;-80
2022/08/10 03:43:46;;;;;;;3.75;3.65;;;;;;;15.47;100.00;102447.59;5259182;28;20028;-81
2022/08/10 03:46:20;;;;;;;5.10;4.22;;;;;;;15.65;100.00;102489.25;5259272;28;20157;-81
2022/08/10 03:48:55;;;;;;;6.20;5.60;;;;;;;15.54;100.00;102480.09;5260144;28;20024;-81
2022/08/10 03:51:26;;;;;;;4.38;4.07;;;;;;;15.57;100.00;102481.53;5259339;28;20028;-80
2022/08/10 03:53:57;;;;;;;4.13;3.92;;;;;;;15.47;100.00;102483.00;5257466;28;20047;-81
2022/08/10 03:56:29;;;;;;;4.78;4.47;;;;;;;15.37;100.00;102466.50;5260042;28;20020;-81
2022/08/10 03:59:00;;;;;;;4.43;4.13;;;;;;;15.49;100.00;102489.00;5259313;28;20024;-82
2022/08/10 04:01:32;;;;;;;4.60;4.32;;;;;;;15.37;100.00;102476.56;5259969;28;20028;-82
2022/08/10 04:04:02;;;;;;;4.65;4.28;;;;;;;15.27;100.00;102470.97;5259794;28;20055;-78
2022/08/10 04:06:33;;;;;;;6.15;4.00;;;;;;;15.37;100.00;102485.53;5260626;28;20487;-81
2022/08/10 04:09:04;;;;;;;4.70;4.20;;;;;;;15.20;100.00;102460.25;5258795;28;20020;-82
2022/08/10 04:11:35;;;;;;;4.05;3.75;;;;;;;15.26;100.00;102474.75;5259518;28;20035;-81
2022/08/10 04:14:06;;;;;;;5.03;4.20;;;;;;;15.33;100.00;102498.00;5257340;28;20016;-81
2022/08/10 04:16:37;;;;;;;4.18;3.88;;;;;;;15.16;100.00;102469.97;5259413;28;20024;-81
2022/08/10 04:19:08;;;;;;;3.92;3.72;;;;;;;15.19;100.00;102473.03;5259656;28;20020;-78
2022/08/10 04:21:42;;;;;;;4.97;4.45;;;;;;;15.26;100.00;102483.75;5260292;28;20028;-81
2022/08/10 04:24:19;;;;;;;4.78;4.22;;;;;;;15.21;100.00;102480.94;5259188;28;20508;-81
2022/08/10 04:26:49;;;;;;;4.88;4.57;;;;;;;15.29;100.00;102496.88;5258639;28;20020;-80
2022/08/10 04:29:20;;;;;;;5.63;5.07;;;;;;;15.15;100.00;102484.66;5260008;28;20059;-78
2022/08/10 04:31:52;;;;;;;5.03;4.53;;;;;;;15.09;100.00;102477.47;5259119;28;20024;-80
2022/08/10 04:34:25;;;;;;;4.68;4.32;;;;;;;15.23;100.00;102503.28;5258531;28;20025;-78
2022/08/10 04:36:58;;;;;;;4.55;4.25;;;;;;;15.17;100.00;102490.66;5258940;28;20024;-81
2022/08/10 04:39:29;;;;;;;12.48;5.28;;;;;;;15.11;100.00;102487.03;5257296;28;20107;-80
2022/08/10 04:42:00;;;;;;;6.18;4.40;;;;;;;15.21;100.00;102500.00;5259134;28;20017;-82
2022/08/10 04:44:31;;;;;;;4.45;4.18;;;;;;;15.10;100.00;102476.41;5257088;28;20029;-82
2022/08/10 04:47:01;;;;;;;4.80;4.47;;;;;;;15.08;100.00;102487.53;5258170;28;20028;-80
2022/08/10 04:49:32;;;;;;;3.92;3.72;;;;;;;15.24;100.00;102494.06;5258839;28;20067;-82
2022/08/10 04:52:03;;;;;;;5.25;4.85;;;;;;;15.07;100.00;102474.16;5258750;28;20028;-82
2022/08/10 04:54:33;;;;;;;5.25;4.95;;;;;;;15.22;100.00;102493.47;5255071;28;20040;-82
2022/08/10 04:57:04;;;;;;;4.82;4.50;;;;;;;15.23;100.00;102492.41;5254690;28;20020;-82
2022/08/10 04:59:34;;;;;;;4.60;4.30;;;;;;;15.24;100.00;102494.06;5254470;28;20166;-81
2022/08/10 05:02:05;;;;;;;5.25;4.93;;;;;;;15.21;100.00;102494.56;5255923;28;20099;-81
2022/08/10 05:04:35;;;;;;;5.85;5.45;;;;;;;15.25;100.00;102494.88;5254816;28;20031;-82
2022/08/10 05:07:07;;;;;;;5.63;5.22;;;;;;;15.27;100.00;102496.28;5256304;28;20095;-80
2022/08/10 05:09:39;;;;;;;6.55;5.15;;;;;;;15.30;100.00;102501.25;5254556;28;20032;-80
2022/08/10 05:12:09;;;;;;;5.03;4.80;;;;;;;15.12;100.00;102460.66;5251875;28;20033;-80
2022/08/10 05:14:40;;;;;;;5.63;5.32;;;;;;;15.35;100.00;102505.91;5254573;28;20020;-81
2022/08/10 05:17:10;;;;;;;5.95;5.63;;;;;;;15.25;100.00;102473.94;5254767;28;20096;-80
2022/08/10 05:19:41;;;;;;;5.13;4.80;;;;;;;15.40;100.00;102493.22;5255334;28;20028;-81
2022/08/10 05:22:11;;;;;;;4.78;4.47;;;;;;;15.40;100.00;102490.50;5254930;28;20498;-82
2022/08/10 05:24:41;;;;;;;6.05;5.65;;;;;;;15.37;100.00;102471.09;5252605;28;20024;-81
2022/08/10 05:27:12;;;;;;;5.80;5.32;;;;;;;15.51;100.00;102489.59;5254560;28;20028;-81
2022/08/10 05:29:42;;;;;;;4.80;4.50;;;;;;;15.53;100.00;102484.72;5245848;28;20061;-80
2022/08/10 05:32:13;;;;;;;6.82;6.18;;;;;;;15.62;100.00;102495.19;5231648;28;20025;-79
2022/08/10 05:34:44;;;;;;;5.78;5.30;;;;;;;15.65;100.00;102497.44;5231688;28;20475;-80
2022/08/10 05:37:15;;;;;;;6.38;5.57;;;;;;;15.66;100.00;102490.91;5230269;28;20025;-79
2022/08/10 05:39:48;;;;;;;7.03;6.53;;;;;;;15.76;100.00;102504.69;5230379;28;20016;-79
2022/08/10 05:42:20;;;;;;;7.25;6.00;;;;;;;15.83;100.00;102502.59;5230310;28;20051;-80
2022/08/10 05:44:51;;;;;;;6.20;5.53;;;;;;;15.89;100.00;102501.56;5230778;28;20044;-80
2022/08/10 05:47:22;;;;;;;11.88;5.35;;;;;;;15.97;100.00;102509.31;5231924;28;20032;-79
2022/08/10 05:49:54;;;;;;;7.15;5.95;;;;;;;16.00;100.00;102503.38;5233131;28;20064;-79
2022/08/10 05:52:25;;;;;;;6.35;5.85;;;;;;;15.97;100.00;102490.25;5233366;28;20037;-79
2022/08/10 05:54:55;;;;;;;8.00;6.72;;;;;;;16.01;100.00;102491.41;5232042;28;20072;-80
2022/08/10 05:57:26;;;;;;;5.57;5.18;;;;;;;16.04;100.00;102488.19;5232134;28;20055;-80
2022/08/10 06:00:01;;;;;;;14.80;6.22;;;;;;;16.21;100.00;102509.91;5232688;28;20031;-81
2022/08/10 06:02:37;;;;;;;8.55;6.53;;;;;;;16.28;100.00;102507.00;5232729;28;20360;-80
2022/08/10 06:05:13;;;;;;;5.43;5.10;;;;;;;16.29;100.00;102492.28;5232285;28;20058;-83
2022/08/10 06:07:58;;;;;;;6.85;6.45;;;;;;;16.40;100.00;102513.97;5230405;28;20032;-79
2022/08/10 06:10:30;;;;;;;6.22;5.68;;;;;;;16.48;100.00;102504.50;5230943;28;20025;-79
2022/08/10 06:15:58;;;;;;;6.43;5.93;;;;;;;16.65;100.00;102515.38;5231243;28;20534;-81
2022/08/10 06:18:30;;;;;;;6.13;5.63;;;;;;;16.72;100.00;102508.63;5230037;28;20032;-77
2022/08/10 06:21:01;;;;;;;5.72;5.32;;;;;;;16.79;100.00;102508.41;5228511;28;20035;-79
2022/08/10 06:23:33;;;;;;;8.27;6.68;;;;;;;16.81;100.00;102508.97;5226962;28;20036;-79
2022/08/10 06:26:05;;;;;;;7.20;6.70;;;;;;;16.80;100.00;102508.16;5229278;28;20394;-78
2022/08/10 06:28:44;;;;;;;7.22;6.72;;;;;;;16.72;100.00;102483.25;5227887;28;20103;-79
2022/08/10 06:31:16;;;;;;;6.65;6.25;;;;;;;16.93;100.00;102506.09;5228161;28;20107;-79
2022/08/10 06:33:47;;;;;;;6.80;6.30;;;;;;;16.86;100.00;102498.94;5228673;28;20033;-80
2022/08/10 06:36:20;;;;;;;8.02;7.30;;;;;;;17.05;100.00;102512.19;5229584;28;20029;-80
2022/08/10 06:38:53;;;;;;;6.53;5.75;;;;;;;17.06;100.00;102508.41;5229727;28;20614;-80
2022/08/10 06:41:27;;;;;;;7.35;6.05;;;;;;;17.14;100.00;102505.19;5230509;28;20028;-82
2022/08/10 06:44:08;;;;;;;6.32;5.97;;;;;;;17.30;100.00;102512.44;5230848;28;20021;-81
2022/08/10 06:46:44;;;;;;;7.45;6.75;;;;;;;17.32;100.00;102504.00;5230217;28;20497;-80
2022/08/10 06:49:20;;;;;;;8.23;7.63;;;;;;;17.45;100.00;102517.19;5231787;28;20056;-81
2022/08/10 06:51:54;;;;;;;7.72;6.13;;;;;;;17.57;100.00;102511.56;5230828;28;20033;-79
2022/08/10 06:54:27;;;;;;;7.63;7.13;;;;;;;17.58;100.00;102513.19;5230914;28;20033;-80
2022/08/10 06:57:00;;;;;;;8.90;7.55;;;;;;;17.63;100.00;102510.47;5231663;28;20025;-80
2022/08/10 06:59:44;;;;;;;6.30;5.82;;;;;;;17.80;100.00;102525.66;5229673;28;20033;-80
2022/08/10 07:02:20;;;;;;;8.25;6.45;;;;;;;17.94;100.00;102517.81;5230646;28;20032;-82
2022/08/10 07:04:58;;;;;;;6.93;6.43;;;;;;;18.12;100.00;102522.84;5230167;28;20021;-82
2022/08/10 07:07:33;;;;;;;7.03;6.53;;;;;;;18.16;100.00;102504.81;5230734;28;20036;-81
2022/08/10 07:10:04;;;;;;;7.47;6.90;;;;;;;18.36;100.00;102515.00;5232684;28;20032;-78
2022/08/10 07:12:37;;;;;;;9.85;7.28;;;;;;;18.45;100.00;102513.41;5234908;28;20086;-82
2022/08/10 07:15:11;;;;;;;5.75;5.25;;;;;;;18.55;100.00;102512.59;5232434;28;20024;-81
2022/08/10 07:17:43;;;;;;;6.53;5.57;;;;;;;18.80;100.00;102536.50;5234940;28;20028;-81
2022/08/10 07:20:17;;;;;;;6.57;6.05;;;;;;;19.08;100.00;102530.50;5233955;28;20031;-80
2022/08/10 07:22:50;;;;;;;6.35;5.90;;;;;;;19.53;100.00;102521.50;5233646;28;20036;-81
2022/08/10 07:25:24;;;;;;;5.65;5.25;;;;;;;19.87;100.00;102527.22;5233557;28;20017;-79
2022/08/10 07:27:56;;;;;;;7.03;6.47;;;;;;;20.13;100.00;102507.94;5234114;28;20088;-79
2022/08/10 07:30:34;;;;;;;6.50;6.07;;;;;;;20.43;100.00;102520.72;5254623;28;20028;-80
2022/08/10 07:33:06;;;;;;;5.60;5.25;;;;;;;20.67;100.00;102529.91;5256427;28;20035;-80
2022/08/10 07:35:38;;;;;;;5.50;5.10;;;;;;;20.93;100.00;102522.34;5260359;28;20017;-81
2022/08/10 07:38:14;;;;;;;7.78;5.63;;;;;;;21.23;100.00;102521.31;5255570;28;20056;-81
2022/08/10 07:40:47;;;;;;;6.40;5.95;;;;;;;21.37;100.00;102522.28;5254942;28;20040;-79
2022/08/10 07:43:23;;;;;;;8.15;5.50;;;;;;;21.50;100.00;102529.88;5253492;28;20104;-79
2022/08/10 07:45:55;;;;;;;4.20;4.00;;;;;;;21.65;100.00;102520.66;5254648;28;20024;-80
2022/08/10 07:48:33;;;;;;;11.27;6.38;;;;;;;21.88;100.00;102522.59;5254369;28;20052;-79
2022/08/10 07:51:06;;;;;;;6.93;5.93;;;;;;;22.01;100.00;102523.03;5234536;28;20537;-80
2022/08/10 07:53:41;;;;;;;6.22;5.65;;;;;;;22.02;100.00;102519.19;5235067;28;20029;-80
2022/08/10 07:56:14;;;;;;;4.25;3.95;;;;;;;22.15;100.00;102522.06;5235650;28;20079;-79
2022/08/10 07:58:51;;;;;;;7.35;4.47;;;;;;;22.17;100.00;102517.06;5249691;28;20024;-80
2022/08/10 08:01:27;;;;;;;5.82;5.18;;;;;;;22.32;100.00;102518.81;5257198;28;20028;-81
2022/08/10 08:04:00;;;;;;;8.63;5.70;;;;;;;22.41;100.00;102517.03;5264889;28;20021;-80
2022/08/10 08:06:32;;;;;;;6.10;4.90;;;;;;;22.58;100.00;102524.78;5263370;28;20021;-80
2022/08/10 08:09:03;;;;;;;5.13;4.63;;;;;;;22.60;100.00;102517.03;5259421;28;20024;-81
2022/08/10 08:11:36;;;;;;;5.50;5.10;;;;;;;22.83;100.00;102523.63;5260289;28;20104;-80
2022/08/10 08:14:07;;;;;;;5.03;4.63;;;;;;;22.84;100.00;102508.72;5260193;28;20043;-82
2022/08/10 08:16:42;;;;;;;4.90;4.57;;;;;;;23.03;100.00;102522.50;5258110;28;20028;-82
2022/08/10 08:19:15;;;;;;;5.57;5.18;;;;;;;22.95;100.00;102517.66;5252741;28;20035;-79
2022/08/10 08:21:48;;;;;;;5.25;4.93;;;;;;;22.87;100.00;102517.22;5254386;28;20075;-79
2022/08/10 08:24:20;;;;;;;15.90;6.47;;;;;;;22.99;100.00;102502.19;5256536;28;20050;-80
2022/08/10 08:26:51;;;;;;;5.60;4.93;;;;;;;23.01;100.00;102505.44;5265277;28;20088;-81
2022/08/10 08:29:23;;;;;;;5.03;4.43;;;;;;;23.24;100.00;102519.09;5258876;28;20028;-80
2022/08/10 08:31:54;;;;;;;4.25;3.92;;;;;;;23.25;100.00;102459.28;5258916;28;20039;-81
2022/08/10 08:34:26;;;;;;;4.28;4.07;;;;;;;23.65;100.00;102485.34;5256066;28;20107;-81
2022/08/10 08:36:57;;;;;;;5.13;4.82;;;;;;;23.59;100.00;102474.69;5260676;28;20465;-81
2022/08/10 08:39:30;;;;;;;4.45;3.90;;;;;;;23.98;100.00;102510.88;5260093;28;20039;-80
2022/08/10 08:42:19;;;;;;;6.22;4.68;;;;;;;24.25;100.00;102509.28;5260829;28;20016;-81
2022/08/10 08:45:05;;;;;;;;;;;;;;;24.41;100.00;102505.84;5259442;28;20410;-80
2022/08/10 08:48:03;;;;;;;19.70;4.88;;;;;;;24.57;100.00;102511.84;5260196;28;19909;-81
2022/08/10 08:50:53;;;;;;;7.25;4.10;;;;;;;24.51;100.00;102508.41;5258115;28;20435;-80
2022/08/10 08:53:29;;;;;;;5.35;3.67;;;;;;;24.68;100.00;102507.72;5265178;22;21577;-60
2022/08/10 08:56:15;;;;;;;5.45;4.15;;;;;;;24.69;100.00;102494.72;5223751;28;20021;-62
2022/08/10 08:59:06;;;;;;;5.35;4.88;;;;;;;24.82;100.00;102505.75;5224533;28;20033;-59
2022/08/10 09:02:03;;;;;;;4.25;3.95;;;;;;;24.92;100.00;102494.44;5223725;28;20540;-59
2022/08/10 09:04:48;;;;;;;3.80;3.60;;;;;;;25.12;99.90;102495.91;5224003;28;20040;-59
2022/08/10 09:07:46;;;;;;;10.73;4.82;;;;;;;25.11;98.68;102499.00;5206349;28;20052;-59
2022/08/10 09:10:43;;;;;;;7.07;4.25;;;;;;;25.48;99.12;102495.78;5224094;28;20035;-59
2022/08/10 09:13:38;;;;;;;4.65;4.32;;;;;;;25.73;97.81;102488.78;5223535;28;20376;-60
2022/08/10 09:16:27;;;;;;;3.80;3.58;;;;;;;25.96;95.64;102492.28;5223087;28;20082;-61
2022/08/10 09:19:23;;;;;;;3.10;2.90;;;;;;;26.09;91.67;102493.28;5223380;28;20480;-60
2022/08/10 09:22:02;;;;;;;4.13;3.70;;;;;;;26.05;91.83;102484.81;5217512;28;20263;-60
2022/08/10 09:24:57;;;;;;;4.32;4.13;;;;;;;26.15;91.68;102489.25;5204807;28;20013;-59
2022/08/10 09:27:27;;;;;;;4.60;4.00;;;;;;;26.22;89.73;102489.59;5191181;28;20170;-59
2022/08/10 09:30:05;;;;;;;6.43;3.00;;;;;;;26.14;88.81;102485.66;5223161;28;20025;-60
2022/08/10 09:32:35;;;;;;;3.03;2.83;;;;;;;26.09;88.65;102480.25;5240895;22;20069;-61
2022/08/10 09:35:20;;;;;;;4.30;3.63;;;;;;;26.06;87.81;102478.13;5235274;28;20032;-62
2022/08/10 09:38:10;;;;;;;4.18;3.88;;;;;;;26.14;87.82;102471.81;5243423;28;20026;-62
2022/08/10 09:40:53;;;;;;;4.93;4.65;;;;;;;26.21;85.26;102469.38;5222977;28;20025;-60
2022/08/10 09:43:39;;;;;;;3.95;3.65;;;;;;;26.28;86.84;102470.84;5203815;28;20138;-61
2022/08/10 09:46:15;;;;;;;4.15;3.88;;;;;;;26.46;85.02;102469.78;5222330;28;20040;-61
2022/08/10 09:48:49;;;;;;;7.45;3.83;;;;;;;26.57;82.52;102468.28;5204681;28;20029;-61
2022/08/10 09:51:50;;;;;;;4.05;3.85;;;;;;;26.84;83.15;102465.22;5222372;28;20104;-61
2022/08/10 09:54:43;;;;;;;3.97;3.78;;;;;;;27.14;81.06;102466.13;5222338;28;20112;-61
2022/08/10 09:57:43;;;;;;;10.85;5.38;;;;;;;27.14;80.17;102459.81;5222004;28;20039;-61
2022/08/10 10:00:16;;;;;;;9.88;3.70;;;;;;;26.50;80.04;102333.03;5222400;28;20033;-61
2022/08/10 10:03:25;;;;;;;7.53;3.50;;;;;;;27.50;80.59;102446.28;5222414;28;20090;-61
2022/08/10 10:06:17;;;;;;;4.07;3.78;;;;;;;27.49;77.85;102446.63;5215785;28;20040;-61
2022/08/10 10:09:02;;;;;;;3.35;3.20;;;;;;;27.43;77.29;102415.44;5222168;28;20021;-61
2022/08/10 10:11:48;;;;;;;3.25;3.05;;;;;;;27.86;75.26;102431.13;5223443;28;20327;-61
2022/08/10 10:15:18;;;;;;;3.03;2.83;;;;;;;27.80;71.63;102427.72;5232522;22;20056;-61
2022/08/10 10:17:47;;;;;;;4.55;3.72;;;;;;;27.57;71.32;102423.56;5224070;28;20060;-61
2022/08/10 10:20:36;;;;;;;6.88;3.05;;;;;;;27.71;70.00;102418.63;5222638;28;20029;-61
2022/08/10 10:23:31;;;;;;;4.30;2.80;;;;;;;27.63;69.80;102422.28;5222693;28;20041;-61
2022/08/10 10:26:33;;;;;;;4.32;3.92;;;;;;;27.75;69.49;102418.75;5222930;28;20017;-60
2022/08/10 10:29:21;;;;;;;3.42;3.05;;;;;;;27.75;69.44;102414.03;5222743;28;20680;-61
2022/08/10 10:32:20;;;;;;;4.00;3.80;;;;;;;27.72;70.73;102408.34;5205796;28;20464;-60
2022/08/10 10:35:22;;;;;;;3.95;3.63;;;;;;;27.93;69.90;102403.63;5222975;28;20115;-61
2022/08/10 10:37:56;;;;;;;3.55;3.35;;;;;;;28.10;67.69;102402.69;5204700;28;20029;-61
2022/08/10 10:40:34;;;;;;;5.13;4.45;;;;;;;28.17;66.75;102401.00;5204423;28;20094;-59
2022/08/10 10:43:14;;;;;;;2.67;2.58;;;;;;;28.29;65.67;102405.03;5222978;28;20025;-61
2022/08/10 10:46:32;;;;;;;4.05;2.63;;;;;;;28.31;66.33;102391.59;5203850;28;20074;-61
2022/08/10 10:49:18;;;;;;;8.53;3.23;;;;;;;28.33;65.17;102397.63;5215769;28;20771;-61
2022/08/10 10:52:19;;;;;;;3.00;2.80;;;;;;;28.16;65.71;102391.03;5222598;28;20489;-61
2022/08/10 10:55:02;;;;;;;2.67;2.47;;;;;;;28.42;65.51;102388.06;5222292;28;20507;-61
2022/08/10 10:57:58;;;;;;;2.97;2.78;;;;;;;28.63;65.24;102385.25;5222964;28;20074;-58
2022/08/10 11:00:59;;;;;;;3.53;3.28;;;;;;;28.77;63.43;102382.19;5223046;28;20032;-61
2022/08/10 11:03:52;;;;;;;3.25;3.05;;;;;;;28.86;62.58;102380.97;5205478;28;20116;-61
2022/08/10 11:06:49;;;;;;;3.55;3.35;;;;;;;29.09;61.42;102375.81;5222750;28;20114;-61
2022/08/10 11:09:25;;;;;;;3.15;2.90;;;;;;;29.20;62.80;102376.94;5223006;28;20048;-61
2022/08/10 11:11:59;;;;;;;4.38;4.07;;;;;;;29.47;62.25;102372.69;5223490;28;20028;-60
2022/08/10 11:14:38;;;;;;;4.25;3.63;;;;;;;29.13;61.27;102357.25;5222829;28;20047;-61
2022/08/10 11:17:08;;;;;;;4.03;3.75;;;;;;;29.20;61.81;102356.66;5223204;28;20020;-61
2022/08/10 11:19:57;;;;;;;2.95;2.85;;;;;;;29.24;58.02;102347.28;5224078;28;20074;-61
2022/08/10 11:22:43;;;;;;;3.47;3.28;;;;;;;29.49;58.67;102358.44;5223274;28;20025;-61
2022/08/10 11:25:31;;;;;;;2.58;2.47;;;;;;;29.48;57.02;102357.63;5223334;28;20166;-61
2022/08/10 11:28:51;;;;;;;4.35;3.28;;;;;;;29.34;55.16;102357.16;5223659;28;20453;-61
2022/08/10 11:31:38;;;;;;;4.07;3.75;;;;;;;29.24;55.32;102335.34;5219389;28;20133;-60
2022/08/10 11:34:26;;;;;;;8.35;3.70;;;;;;;29.22;56.42;102340.44;5222923;28;20124;-61
2022/08/10 11:37:18;;;;;;;3.83;3.63;;;;;;;29.56;56.20;102345.56;5222086;28;20106;-61
2022/08/10 11:39:58;;;;;;;3.80;3.50;;;;;;;29.46;55.74;102340.47;5222613;28;20021;-61
2022/08/10 11:43:05;;;;;;;3.75;3.47;;;;;;;29.79;55.04;102339.47;5221919;28;20112;-61
2022/08/10 11:45:42;;;;;;;5.03;3.60;;;;;;;29.53;53.14;102337.09;5224106;28;20032;-60
2022/08/10 11:48:50;;;;;;;3.70;3.20;;;;;;;29.59;53.49;102332.09;5221802;28;20117;-61
2022/08/10 11:51:28;;;;;;;2.65;2.55;;;;;;;29.67;53.34;102331.19;5218642;28;20037;-61
2022/08/10 11:54:06;;;;;;;4.85;4.50;;;;;;;29.84;54.69;102333.69;5203949;28;20077;-61
2022/08/10 11:56:48;;;;;;;4.78;3.47;;;;;;;30.09;54.58;102307.38;5223218;28;20036;-61
2022/08/10 12:02:15;;;;;;;4.85;3.72;;;;;;;30.57;53.26;102318.72;5224753;28;20086;-61
2022/08/10 12:04:54;;;;;;;5.57;3.80;;;;;;;30.60;53.20;102329.97;5224352;28;20469;-61
2022/08/10 12:07:27;;;;;;;6.50;5.38;;;;;;;30.31;52.21;102322.75;5225076;28;20052;-61
2022/08/10 12:09:58;;;;;;;8.25;4.38;;;;;;;29.99;52.92;102321.84;5225790;28;20157;-59
2022/08/10 12:12:33;;;;;;;3.08;2.97;;;;;;;30.05;53.42;102328.75;5225529;28;20464;-60